sensor_id;sensor_type;location;lat;lon;timestamp;P1;durP1;ratioP1;P2;durP2;ratioP2
5845;SDS011;2949;50.778;7.094;2023-05-07T00:00:36;4.13;;;3.77;;
5845;SDS011;2949;50.778;7.094;2023-05-07T00:03:01;4.33;;;3.93;;
5845;SDS011;2949;50.778;7.094;2023-05-07T00:05:27;5.97;;;4.10;;
5845;SDS011;2949;50.778;7.094;2023-05-07T00:07:53;4.20;;;3.80;;
5845;SDS011;2949;50.778;7.094;2023-05-07T00:10:18;4.80;;;3.80;;
5845;SDS011;2949;50.778;7.094;2023-05-07T00:12:44;4.20;;;3.87;;
5845;SDS011;2949;50.778;7.094;2023-05-07T00:15:10;9.37;;;3.30;;
5845;SDS011;2949;50.778;7.094;2023-05-07T00:17:36;6.53;;;4.10;;
5845;SDS011;2949;50.778;7.094;2023-05-07T00:20:02;3.70;;;3.40;;
5845;SDS011;2949;50.778;7.094;2023-05-07T00:22:29;3.97;;;3.20;;
5845;SDS011;2949;50.778;7.094;2023-05-07T00:24:55;3.50;;;3.13;;
5845;SDS011;2949;50.778;7.094;2023-05-07T00:27:21;9.53;;;3.57;;
5845;SDS011;2949;50.778;7.094;2023-05-07T00:29:47;4.23;;;3.83;;
5845;SDS011;2949;50.778;7.094;2023-05-07T00:32:12;3.17;;;2.87;;
5845;SDS011;2949;50.778;7.094;2023-05-07T00:34:38;25.80;;;3.70;;
5845;SDS011;2949;50.778;7.094;2023-05-07T00:37:04;5.07;;;3.80;;
5845;SDS011;2949;50.778;7.094;2023-05-07T00:39:30;4.37;;;3.97;;
5845;SDS011;2949;50.778;7.094;2023-05-07T00:41:55;4.63;;;4.10;;
5845;SDS011;2949;50.778;7.094;2023-05-07T00:44:21;5.83;;;4.60;;
5845;SDS011;2949;50.778;7.094;2023-05-07T00:46:47;3.50;;;3.20;;
5845;SDS011;2949;50.778;7.094;2023-05-07T00:49:14;4.00;;;3.60;;
5845;SDS011;2949;50.778;7.094;2023-05-07T00:51:40;3.90;;;3.60;;
5845;SDS011;2949;50.778;7.094;2023-05-07T00:54:06;5.20;;;3.50;;
5845;SDS011;2949;50.778;7.094;2023-05-07T00:56:34;3.97;;;3.60;;
5845;SDS011;2949;50.778;7.094;2023-05-07T00:59:00;4.37;;;3.97;;
5845;SDS011;2949;50.778;7.094;2023-05-07T01:01:26;5.10;;;3.60;;
5845;SDS011;2949;50.778;7.094;2023-05-07T01:03:52;5.90;;;3.70;;
5845;SDS011;2949;50.778;7.094;2023-05-07T01:06:18;5.20;;;3.50;;
5845;SDS011;2949;50.778;7.094;2023-05-07T01:08:46;12.63;;;4.33;;
5845;SDS011;2949;50.778;7.094;2023-05-07T01:11:12;6.17;;;4.47;;
5845;SDS011;2949;50.778;7.094;2023-05-07T01:13:38;3.93;;;3.63;;
5845;SDS011;2949;50.778;7.094;2023-05-07T01:16:05;4.87;;;4.13;;
5845;SDS011;2949;50.778;7.094;2023-05-07T01:18:31;7.53;;;4.37;;
5845;SDS011;2949;50.778;7.094;2023-05-07T01:20:58;4.57;;;3.77;;
5845;SDS011;2949;50.778;7.094;2023-05-07T01:23:25;6.07;;;4.10;;
5845;SDS011;2949;50.778;7.094;2023-05-07T01:25:52;3.77;;;3.47;;
5845;SDS011;2949;50.778;7.094;2023-05-07T01:28:18;7.70;;;4.40;;
5845;SDS011;2949;50.778;7.094;2023-05-07T01:30:45;4.17;;;3.77;;
5845;SDS011;2949;50.778;7.094;2023-05-07T01:33:17;3.97;;;3.33;;
5845;SDS011;2949;50.778;7.094;2023-05-07T01:35:47;7.70;;;4.30;;
5845;SDS011;2949;50.778;7.094;2023-05-07T01:38:18;5.97;;;4.30;;
5845;SDS011;2949;50.778;7.094;2023-05-07T01:40:46;7.77;;;4.20;;
5845;SDS011;2949;50.778;7.094;2023-05-07T01:43:12;4.77;;;3.97;;
5845;SDS011;2949;50.778;7.094;2023-05-07T01:45:37;3.90;;;3.60;;
5845;SDS011;2949;50.778;7.094;2023-05-07T01:48:05;4.87;;;4.20;;
5845;SDS011;2949;50.778;7.094;2023-05-07T01:50:32;5.63;;;4.03;;
5845;SDS011;2949;50.778;7.094;2023-05-07T01:52:58;3.70;;;3.40;;
5845;SDS011;2949;50.778;7.094;2023-05-07T01:55:23;5.17;;;4.33;;
5845;SDS011;2949;50.778;7.094;2023-05-07T01:57:49;9.47;;;5.10;;
5845;SDS011;2949;50.778;7.094;2023-05-07T02:00:14;5.50;;;5.00;;
5845;SDS011;2949;50.778;7.094;2023-05-07T02:02:40;6.90;;;4.83;;
5845;SDS011;2949;50.778;7.094;2023-05-07T02:05:06;5.10;;;4.47;;
5845;SDS011;2949;50.778;7.094;2023-05-07T02:07:31;5.20;;;4.70;;
5845;SDS011;2949;50.778;7.094;2023-05-07T02:09:57;4.90;;;4.40;;
5845;SDS011;2949;50.778;7.094;2023-05-07T02:12:23;4.63;;;4.23;;
5845;SDS011;2949;50.778;7.094;2023-05-07T02:14:48;6.33;;;4.50;;
5845;SDS011;2949;50.778;7.094;2023-05-07T02:17:14;7.23;;;4.57;;
5845;SDS011;2949;50.778;7.094;2023-05-07T02:19:40;11.47;;;4.40;;
5845;SDS011;2949;50.778;7.094;2023-05-07T02:22:06;4.93;;;4.10;;
5845;SDS011;2949;50.778;7.094;2023-05-07T02:24:32;4.80;;;4.30;;
5845;SDS011;2949;50.778;7.094;2023-05-07T02:26:57;4.33;;;3.63;;
5845;SDS011;2949;50.778;7.094;2023-05-07T02:29:23;6.90;;;3.93;;
5845;SDS011;2949;50.778;7.094;2023-05-07T02:31:48;8.57;;;4.67;;
5845;SDS011;2949;50.778;7.094;2023-05-07T02:34:17;7.10;;;3.63;;
5845;SDS011;2949;50.778;7.094;2023-05-07T02:36:43;8.00;;;4.50;;
5845;SDS011;2949;50.778;7.094;2023-05-07T02:39:09;5.50;;;3.73;;
5845;SDS011;2949;50.778;7.094;2023-05-07T02:41:34;7.07;;;3.90;;
5845;SDS011;2949;50.778;7.094;2023-05-07T02:44:00;5.40;;;4.17;;
5845;SDS011;2949;50.778;7.094;2023-05-07T02:46:25;6.27;;;3.40;;
5845;SDS011;2949;50.778;7.094;2023-05-07T02:48:51;8.30;;;4.10;;
5845;SDS011;2949;50.778;7.094;2023-05-07T02:51:19;5.50;;;4.30;;
5845;SDS011;2949;50.778;7.094;2023-05-07T02:53:45;6.00;;;3.53;;
5845;SDS011;2949;50.778;7.094;2023-05-07T02:56:11;5.07;;;4.60;;
5845;SDS011;2949;50.778;7.094;2023-05-07T02:58:36;4.67;;;3.77;;
5845;SDS011;2949;50.778;7.094;2023-05-07T03:01:04;3.80;;;3.40;;
5845;SDS011;2949;50.778;7.094;2023-05-07T03:03:30;4.10;;;3.77;;
5845;SDS011;2949;50.778;7.094;2023-05-07T03:05:55;3.37;;;3.07;;
5845;SDS011;2949;50.778;7.094;2023-05-07T03:08:21;4.43;;;4.03;;
5845;SDS011;2949;50.778;7.094;2023-05-07T03:10:47;4.40;;;3.70;;
5845;SDS011;2949;50.778;7.094;2023-05-07T03:13:12;10.23;;;4.80;;
5845;SDS011;2949;50.778;7.094;2023-05-07T03:15:38;5.57;;;4.30;;
5845;SDS011;2949;50.778;7.094;2023-05-07T03:18:03;8.63;;;4.07;;
5845;SDS011;2949;50.778;7.094;2023-05-07T03:20:29;4.90;;;4.33;;
5845;SDS011;2949;50.778;7.094;2023-05-07T03:22:54;4.33;;;3.90;;
5845;SDS011;2949;50.778;7.094;2023-05-07T03:25:20;5.47;;;4.20;;
5845;SDS011;2949;50.778;7.094;2023-05-07T03:27:46;5.10;;;4.60;;
5845;SDS011;2949;50.778;7.094;2023-05-07T03:30:11;4.00;;;3.70;;
5845;SDS011;2949;50.778;7.094;2023-05-07T03:32:37;5.63;;;5.03;;
5845;SDS011;2949;50.778;7.094;2023-05-07T03:35:03;4.70;;;4.30;;
5845;SDS011;2949;50.778;7.094;2023-05-07T03:37:29;5.67;;;4.73;;
5845;SDS011;2949;50.778;7.094;2023-05-07T03:39:54;3.90;;;3.33;;
5845;SDS011;2949;50.778;7.094;2023-05-07T03:42:20;9.57;;;3.80;;
5845;SDS011;2949;50.778;7.094;2023-05-07T03:44:45;5.80;;;3.97;;
5845;SDS011;2949;50.778;7.094;2023-05-07T03:47:11;6.23;;;3.90;;
5845;SDS011;2949;50.778;7.094;2023-05-07T03:49:38;6.17;;;4.77;;
5845;SDS011;2949;50.778;7.094;2023-05-07T03:52:04;5.43;;;4.50;;
5845;SDS011;2949;50.778;7.094;2023-05-07T03:54:30;4.20;;;3.80;;
5845;SDS011;2949;50.778;7.094;2023-05-07T03:56:56;5.23;;;3.73;;
5845;SDS011;2949;50.778;7.094;2023-05-07T03:59:21;5.93;;;5.33;;
5845;SDS011;2949;50.778;7.094;2023-05-07T04:01:47;5.07;;;4.00;;
5845;SDS011;2949;50.778;7.094;2023-05-07T04:04:13;7.10;;;5.50;;
5845;SDS011;2949;50.778;7.094;2023-05-07T04:06:39;14.53;;;4.37;;
5845;SDS011;2949;50.778;7.094;2023-05-07T04:09:05;6.10;;;4.10;;
5845;SDS011;2949;50.778;7.094;2023-05-07T04:11:31;6.57;;;4.77;;
5845;SDS011;2949;50.778;7.094;2023-05-07T04:13:57;4.90;;;4.40;;
5845;SDS011;2949;50.778;7.094;2023-05-07T04:16:22;7.03;;;4.10;;
5845;SDS011;2949;50.778;7.094;2023-05-07T04:18:48;5.80;;;3.70;;
5845;SDS011;2949;50.778;7.094;2023-05-07T04:21:17;4.60;;;4.13;;
5845;SDS011;2949;50.778;7.094;2023-05-07T04:23:43;4.23;;;3.80;;
5845;SDS011;2949;50.778;7.094;2023-05-07T04:26:09;4.27;;;3.87;;
5845;SDS011;2949;50.778;7.094;2023-05-07T04:28:35;3.80;;;3.50;;
5845;SDS011;2949;50.778;7.094;2023-05-07T04:31:00;3.93;;;3.43;;
5845;SDS011;2949;50.778;7.094;2023-05-07T04:33:26;4.10;;;3.40;;
5845;SDS011;2949;50.778;7.094;2023-05-07T04:35:51;6.53;;;3.33;;
5845;SDS011;2949;50.778;7.094;2023-05-07T04:38:17;10.30;;;3.90;;
5845;SDS011;2949;50.778;7.094;2023-05-07T04:40:43;6.17;;;3.37;;
5845;SDS011;2949;50.778;7.094;2023-05-07T04:43:10;7.63;;;3.53;;
5845;SDS011;2949;50.778;7.094;2023-05-07T04:45:35;6.60;;;3.97;;
5845;SDS011;2949;50.778;7.094;2023-05-07T04:48:01;6.70;;;3.70;;
5845;SDS011;2949;50.778;7.094;2023-05-07T04:50:27;4.07;;;3.67;;
5845;SDS011;2949;50.778;7.094;2023-05-07T04:52:53;8.10;;;3.47;;
5845;SDS011;2949;50.778;7.094;2023-05-07T04:55:18;4.50;;;3.13;;
5845;SDS011;2949;50.778;7.094;2023-05-07T04:57:44;5.20;;;3.07;;
5845;SDS011;2949;50.778;7.094;2023-05-07T05:00:10;3.00;;;2.80;;
5845;SDS011;2949;50.778;7.094;2023-05-07T05:02:38;3.57;;;3.27;;
5845;SDS011;2949;50.778;7.094;2023-05-07T05:05:04;7.87;;;3.00;;
5845;SDS011;2949;50.778;7.094;2023-05-07T05:07:30;7.20;;;3.10;;
5845;SDS011;2949;50.778;7.094;2023-05-07T05:09:56;3.67;;;3.37;;
5845;SDS011;2949;50.778;7.094;2023-05-07T05:12:22;3.50;;;3.20;;
5845;SDS011;2949;50.778;7.094;2023-05-07T05:14:48;4.57;;;2.83;;
5845;SDS011;2949;50.778;7.094;2023-05-07T05:17:13;3.97;;;3.07;;
5845;SDS011;2949;50.778;7.094;2023-05-07T05:19:39;2.77;;;2.53;;
5845;SDS011;2949;50.778;7.094;2023-05-07T05:22:04;4.23;;;2.57;;
5845;SDS011;2949;50.778;7.094;2023-05-07T05:24:30;5.17;;;2.70;;
5845;SDS011;2949;50.778;7.094;2023-05-07T05:26:56;2.83;;;2.07;;
5845;SDS011;2949;50.778;7.094;2023-05-07T05:29:22;2.43;;;2.23;;
5845;SDS011;2949;50.778;7.094;2023-05-07T05:31:47;3.53;;;2.47;;
5845;SDS011;2949;50.778;7.094;2023-05-07T05:34:13;2.27;;;2.17;;
5845;SDS011;2949;50.778;7.094;2023-05-07T05:36:38;2.13;;;2.03;;
5845;SDS011;2949;50.778;7.094;2023-05-07T05:39:04;3.30;;;2.30;;
5845;SDS011;2949;50.778;7.094;2023-05-07T05:41:29;3.43;;;2.07;;
5845;SDS011;2949;50.778;7.094;2023-05-07T05:43:55;5.83;;;2.40;;
5845;SDS011;2949;50.778;7.094;2023-05-07T05:46:21;2.60;;;2.23;;
5845;SDS011;2949;50.778;7.094;2023-05-07T05:48:46;2.43;;;2.17;;
5845;SDS011;2949;50.778;7.094;2023-05-07T05:51:12;2.30;;;2.10;;
5845;SDS011;2949;50.778;7.094;2023-05-07T05:53:37;2.07;;;1.97;;
5845;SDS011;2949;50.778;7.094;2023-05-07T05:56:03;4.33;;;2.20;;
5845;SDS011;2949;50.778;7.094;2023-05-07T05:58:29;4.80;;;2.13;;
5845;SDS011;2949;50.778;7.094;2023-05-07T06:00:55;2.33;;;2.20;;
5845;SDS011;2949;50.778;7.094;2023-05-07T06:03:21;9.50;;;2.50;;
5845;SDS011;2949;50.778;7.094;2023-05-07T06:05:46;2.20;;;2.10;;
5845;SDS011;2949;50.778;7.094;2023-05-07T06:08:12;1.80;;;1.70;;
5845;SDS011;2949;50.778;7.094;2023-05-07T06:10:38;3.10;;;2.17;;
5845;SDS011;2949;50.778;7.094;2023-05-07T06:13:04;3.00;;;2.23;;
5845;SDS011;2949;50.778;7.094;2023-05-07T06:15:30;2.93;;;1.50;;
5845;SDS011;2949;50.778;7.094;2023-05-07T06:17:55;3.60;;;1.80;;
5845;SDS011;2949;50.778;7.094;2023-05-07T06:20:22;1.63;;;1.53;;
5845;SDS011;2949;50.778;7.094;2023-05-07T06:22:48;2.07;;;1.93;;
5845;SDS011;2949;50.778;7.094;2023-05-07T06:25:13;1.77;;;1.63;;
5845;SDS011;2949;50.778;7.094;2023-05-07T06:27:39;3.33;;;1.77;;
5845;SDS011;2949;50.778;7.094;2023-05-07T06:30:05;1.57;;;1.47;;
5845;SDS011;2949;50.778;7.094;2023-05-07T06:32:31;2.13;;;1.93;;
5845;SDS011;2949;50.778;7.094;2023-05-07T06:34:57;1.53;;;1.33;;
5845;SDS011;2949;50.778;7.094;2023-05-07T06:37:22;1.80;;;1.40;;
5845;SDS011;2949;50.778;7.094;2023-05-07T06:39:48;1.83;;;1.57;;
5845;SDS011;2949;50.778;7.094;2023-05-07T06:42:13;1.83;;;1.73;;
5845;SDS011;2949;50.778;7.094;2023-05-07T06:44:39;3.70;;;1.70;;
5845;SDS011;2949;50.778;7.094;2023-05-07T06:47:04;1.40;;;1.30;;
5845;SDS011;2949;50.778;7.094;2023-05-07T06:49:30;1.60;;;1.50;;
5845;SDS011;2949;50.778;7.094;2023-05-07T06:51:56;3.13;;;1.80;;
5845;SDS011;2949;50.778;7.094;2023-05-07T06:54:22;3.57;;;1.63;;
5845;SDS011;2949;50.778;7.094;2023-05-07T06:56:47;1.20;;;1.20;;
5845;SDS011;2949;50.778;7.094;2023-05-07T06:59:13;1.73;;;1.63;;
5845;SDS011;2949;50.778;7.094;2023-05-07T07:01:39;2.07;;;1.73;;
5845;SDS011;2949;50.778;7.094;2023-05-07T07:04:04;6.70;;;1.90;;
5845;SDS011;2949;50.778;7.094;2023-05-07T07:06:30;3.70;;;1.83;;
5845;SDS011;2949;50.778;7.094;2023-05-07T07:08:56;1.47;;;1.40;;
5845;SDS011;2949;50.778;7.094;2023-05-07T07:11:22;2.47;;;1.37;;
5845;SDS011;2949;50.778;7.094;2023-05-07T07:13:48;1.40;;;1.30;;
5845;SDS011;2949;50.778;7.094;2023-05-07T07:16:13;2.50;;;1.43;;
5845;SDS011;2949;50.778;7.094;2023-05-07T07:18:39;1.50;;;1.40;;
5845;SDS011;2949;50.778;7.094;2023-05-07T07:21:05;2.10;;;1.70;;
5845;SDS011;2949;50.778;7.094;2023-05-07T07:23:30;1.83;;;1.33;;
5845;SDS011;2949;50.778;7.094;2023-05-07T07:25:56;1.53;;;1.37;;
5845;SDS011;2949;50.778;7.094;2023-05-07T07:28:21;1.40;;;1.30;;
5845;SDS011;2949;50.778;7.094;2023-05-07T07:30:47;1.40;;;1.30;;
5845;SDS011;2949;50.778;7.094;2023-05-07T07:33:13;1.10;;;1.10;;
5845;SDS011;2949;50.778;7.094;2023-05-07T07:35:39;1.67;;;1.57;;
5845;SDS011;2949;50.778;7.094;2023-05-07T07:38:04;3.13;;;1.30;;
5845;SDS011;2949;50.778;7.094;2023-05-07T07:40:30;3.40;;;1.50;;
5845;SDS011;2949;50.778;7.094;2023-05-07T07:42:56;1.67;;;1.40;;
5845;SDS011;2949;50.778;7.094;2023-05-07T07:45:21;2.83;;;1.50;;
5845;SDS011;2949;50.778;7.094;2023-05-07T07:47:47;1.97;;;1.73;;
5845;SDS011;2949;50.778;7.094;2023-05-07T07:50:12;1.30;;;1.20;;
5845;SDS011;2949;50.778;7.094;2023-05-07T07:52:38;3.40;;;1.70;;
5845;SDS011;2949;50.778;7.094;2023-05-07T07:55:04;1.70;;;1.60;;
5845;SDS011;2949;50.778;7.094;2023-05-07T07:57:30;1.60;;;1.50;;
5845;SDS011;2949;50.778;7.094;2023-05-07T07:59:55;2.53;;;1.50;;
5845;SDS011;2949;50.778;7.094;2023-05-07T08:02:21;3.50;;;1.33;;
5845;SDS011;2949;50.778;7.094;2023-05-07T08:04:46;6.10;;;1.57;;
5845;SDS011;2949;50.778;7.094;2023-05-07T08:07:12;1.40;;;1.30;;
5845;SDS011;2949;50.778;7.094;2023-05-07T08:09:38;2.50;;;1.17;;
5845;SDS011;2949;50.778;7.094;2023-05-07T08:12:05;2.30;;;1.30;;
5845;SDS011;2949;50.778;7.094;2023-05-07T08:14:31;1.10;;;1.10;;
5845;SDS011;2949;50.778;7.094;2023-05-07T08:16:56;1.73;;;1.50;;
5845;SDS011;2949;50.778;7.094;2023-05-07T08:19:22;1.60;;;1.50;;
5845;SDS011;2949;50.778;7.094;2023-05-07T08:21:48;2.40;;;1.47;;
5845;SDS011;2949;50.778;7.094;2023-05-07T08:24:13;3.63;;;1.30;;
5845;SDS011;2949;50.778;7.094;2023-05-07T08:26:40;2.33;;;1.47;;
5845;SDS011;2949;50.778;7.094;2023-05-07T08:29:06;1.43;;;1.03;;
5845;SDS011;2949;50.778;7.094;2023-05-07T08:31:32;4.67;;;1.40;;
5845;SDS011;2949;50.778;7.094;2023-05-07T08:33:58;5.13;;;1.27;;
5845;SDS011;2949;50.778;7.094;2023-05-07T08:36:24;1.53;;;1.43;;
5845;SDS011;2949;50.778;7.094;2023-05-07T08:38:50;6.00;;;1.70;;
5845;SDS011;2949;50.778;7.094;2023-05-07T08:41:16;2.77;;;1.40;;
5845;SDS011;2949;50.778;7.094;2023-05-07T08:43:42;1.83;;;1.20;;
5845;SDS011;2949;50.778;7.094;2023-05-07T08:46:12;3.93;;;1.20;;
5845;SDS011;2949;50.778;7.094;2023-05-07T08:48:44;1.20;;;1.10;;
5845;SDS011;2949;50.778;7.094;2023-05-07T08:51:14;1.70;;;1.43;;
5845;SDS011;2949;50.778;7.094;2023-05-07T08:53:42;1.33;;;1.27;;
5845;SDS011;2949;50.778;7.094;2023-05-07T08:56:08;1.43;;;1.33;;
5845;SDS011;2949;50.778;7.094;2023-05-07T08:58:34;1.17;;;1.17;;
5845;SDS011;2949;50.778;7.094;2023-05-07T09:01:07;1.00;;;1.00;;
5845;SDS011;2949;50.778;7.094;2023-05-07T09:03:34;1.10;;;1.00;;
5845;SDS011;2949;50.778;7.094;2023-05-07T09:06:00;3.50;;;1.60;;
5845;SDS011;2949;50.778;7.094;2023-05-07T09:08:26;3.13;;;1.30;;
5845;SDS011;2949;50.778;7.094;2023-05-07T09:10:52;4.50;;;1.30;;
5845;SDS011;2949;50.778;7.094;2023-05-07T09:13:17;2.20;;;1.50;;
5845;SDS011;2949;50.778;7.094;2023-05-07T09:15:43;1.20;;;1.20;;
5845;SDS011;2949;50.778;7.094;2023-05-07T09:18:08;1.47;;;1.37;;
5845;SDS011;2949;50.778;7.094;2023-05-07T09:20:36;3.10;;;1.33;;
5845;SDS011;2949;50.778;7.094;2023-05-07T09:23:01;2.37;;;1.33;;
5845;SDS011;2949;50.778;7.094;2023-05-07T09:25:31;1.10;;;1.10;;
5845;SDS011;2949;50.778;7.094;2023-05-07T09:27:58;2.20;;;1.50;;
5845;SDS011;2949;50.778;7.094;2023-05-07T09:30:28;1.07;;;0.93;;
5845;SDS011;2949;50.778;7.094;2023-05-07T09:32:55;1.07;;;1.07;;
5845;SDS011;2949;50.778;7.094;2023-05-07T09:35:21;1.97;;;1.20;;
5845;SDS011;2949;50.778;7.094;2023-05-07T09:37:49;2.23;;;1.40;;
5845;SDS011;2949;50.778;7.094;2023-05-07T09:40:28;2.63;;;1.03;;
5845;SDS011;2949;50.778;7.094;2023-05-07T09:42:54;2.00;;;1.43;;
5845;SDS011;2949;50.778;7.094;2023-05-07T09:45:29;2.00;;;1.10;;
5845;SDS011;2949;50.778;7.094;2023-05-07T09:47:55;2.73;;;1.53;;
5845;SDS011;2949;50.778;7.094;2023-05-07T09:50:26;3.13;;;1.83;;
5845;SDS011;2949;50.778;7.094;2023-05-07T09:52:53;2.13;;;1.20;;
5845;SDS011;2949;50.778;7.094;2023-05-07T09:55:20;3.43;;;2.03;;
5845;SDS011;2949;50.778;7.094;2023-05-07T09:57:48;2.10;;;1.40;;
5845;SDS011;2949;50.778;7.094;2023-05-07T10:00:15;5.50;;;1.70;;
5845;SDS011;2949;50.778;7.094;2023-05-07T10:02:46;1.53;;;1.43;;
5845;SDS011;2949;50.778;7.094;2023-05-07T10:05:17;2.20;;;1.83;;
5845;SDS011;2949;50.778;7.094;2023-05-07T10:07:44;2.00;;;1.20;;
5845;SDS011;2949;50.778;7.094;2023-05-07T10:10:10;3.17;;;1.20;;
5845;SDS011;2949;50.778;7.094;2023-05-07T10:12:36;3.20;;;1.80;;
5845;SDS011;2949;50.778;7.094;2023-05-07T10:15:07;1.30;;;1.20;;
5845;SDS011;2949;50.778;7.094;2023-05-07T10:17:35;8.70;;;1.30;;
5845;SDS011;2949;50.778;7.094;2023-05-07T10:20:01;2.67;;;1.57;;
5845;SDS011;2949;50.778;7.094;2023-05-07T10:22:28;1.13;;;1.13;;
5845;SDS011;2949;50.778;7.094;2023-05-07T10:25:02;1.70;;;1.30;;
5845;SDS011;2949;50.778;7.094;2023-05-07T10:27:28;1.40;;;1.30;;
5845;SDS011;2949;50.778;7.094;2023-05-07T10:30:07;1.33;;;1.23;;
5845;SDS011;2949;50.778;7.094;2023-05-07T10:32:51;1.03;;;1.03;;
5845;SDS011;2949;50.778;7.094;2023-05-07T10:35:21;1.20;;;1.10;;
5845;SDS011;2949;50.778;7.094;2023-05-07T10:37:50;1.50;;;1.30;;
5845;SDS011;2949;50.778;7.094;2023-05-07T10:40:16;1.57;;;1.37;;
5845;SDS011;2949;50.778;7.094;2023-05-07T10:43:01;3.60;;;1.23;;
5845;SDS011;2949;50.778;7.094;2023-05-07T10:45:31;2.47;;;1.60;;
5845;SDS011;2949;50.778;7.094;2023-05-07T10:50:33;4.67;;;1.63;;
5845;SDS011;2949;50.778;7.094;2023-05-07T10:55:43;2.03;;;1.40;;
5845;SDS011;2949;50.778;7.094;2023-05-07T10:58:30;1.10;;;1.00;;
5845;SDS011;2949;50.778;7.094;2023-05-07T11:00:58;2.67;;;1.20;;
5845;SDS011;2949;50.778;7.094;2023-05-07T11:03:26;1.37;;;1.27;;
5845;SDS011;2949;50.778;7.094;2023-05-07T11:11:17;1.43;;;1.20;;
5845;SDS011;2949;50.778;7.094;2023-05-07T11:16:18;2.00;;;1.17;;
5845;SDS011;2949;50.778;7.094;2023-05-07T11:18:48;2.63;;;1.20;;
5845;SDS011;2949;50.778;7.094;2023-05-07T11:21:31;3.30;;;1.03;;
5845;SDS011;2949;50.778;7.094;2023-05-07T11:24:07;1.27;;;1.10;;
5845;SDS011;2949;50.778;7.094;2023-05-07T11:26:43;2.37;;;1.20;;
5845;SDS011;2949;50.778;7.094;2023-05-07T11:29:13;2.80;;;1.03;;
5845;SDS011;2949;50.778;7.094;2023-05-07T11:31:41;5.33;;;1.20;;
5845;SDS011;2949;50.778;7.094;2023-05-07T11:34:07;1.50;;;1.10;;
5845;SDS011;2949;50.778;7.094;2023-05-07T11:36:33;1.57;;;1.20;;
5845;SDS011;2949;50.778;7.094;2023-05-07T11:38:59;1.47;;;1.37;;
5845;SDS011;2949;50.778;7.094;2023-05-07T11:41:37;1.07;;;1.07;;
5845;SDS011;2949;50.778;7.094;2023-05-07T11:44:03;1.53;;;1.03;;
5845;SDS011;2949;50.778;7.094;2023-05-07T11:46:28;2.60;;;0.90;;
5845;SDS011;2949;50.778;7.094;2023-05-07T11:48:55;2.50;;;1.23;;
5845;SDS011;2949;50.778;7.094;2023-05-07T11:51:21;2.80;;;1.27;;
5845;SDS011;2949;50.778;7.094;2023-05-07T11:53:48;2.90;;;1.10;;
5845;SDS011;2949;50.778;7.094;2023-05-07T11:56:15;6.17;;;1.37;;
5845;SDS011;2949;50.778;7.094;2023-05-07T11:58:43;4.40;;;0.90;;
5845;SDS011;2949;50.778;7.094;2023-05-07T12:01:10;1.80;;;1.10;;
5845;SDS011;2949;50.778;7.094;2023-05-07T12:03:39;1.33;;;1.00;;
5845;SDS011;2949;50.778;7.094;2023-05-07T12:06:09;2.20;;;1.37;;
5845;SDS011;2949;50.778;7.094;2023-05-07T12:08:37;3.77;;;1.27;;
5845;SDS011;2949;50.778;7.094;2023-05-07T12:11:04;1.30;;;1.13;;
5845;SDS011;2949;50.778;7.094;2023-05-07T12:13:33;1.13;;;1.03;;
5845;SDS011;2949;50.778;7.094;2023-05-07T12:15:59;1.53;;;1.10;;
5845;SDS011;2949;50.778;7.094;2023-05-07T12:18:25;1.50;;;0.87;;
5845;SDS011;2949;50.778;7.094;2023-05-07T12:20:52;2.27;;;1.23;;
5845;SDS011;2949;50.778;7.094;2023-05-07T12:23:18;1.00;;;1.00;;
5845;SDS011;2949;50.778;7.094;2023-05-07T12:25:44;1.00;;;1.00;;
5845;SDS011;2949;50.778;7.094;2023-05-07T12:28:13;2.60;;;1.20;;
5845;SDS011;2949;50.778;7.094;2023-05-07T12:30:42;1.50;;;1.17;;
5845;SDS011;2949;50.778;7.094;2023-05-07T12:33:12;1.83;;;1.53;;
5845;SDS011;2949;50.778;7.094;2023-05-07T12:35:42;4.57;;;1.37;;
5845;SDS011;2949;50.778;7.094;2023-05-07T12:38:08;2.70;;;1.17;;
5845;SDS011;2949;50.778;7.094;2023-05-07T12:40:39;1.67;;;1.17;;
5845;SDS011;2949;50.778;7.094;2023-05-07T12:43:06;1.37;;;1.27;;
5845;SDS011;2949;50.778;7.094;2023-05-07T12:45:36;1.80;;;1.40;;
5845;SDS011;2949;50.778;7.094;2023-05-07T12:48:04;3.17;;;1.20;;
5845;SDS011;2949;50.778;7.094;2023-05-07T12:50:33;4.27;;;1.20;;
5845;SDS011;2949;50.778;7.094;2023-05-07T12:52:58;1.80;;;1.30;;
5845;SDS011;2949;50.778;7.094;2023-05-07T12:55:24;1.87;;;1.50;;
5845;SDS011;2949;50.778;7.094;2023-05-07T12:57:50;1.90;;;1.20;;
5845;SDS011;2949;50.778;7.094;2023-05-07T13:00:18;4.03;;;1.87;;
5845;SDS011;2949;50.778;7.094;2023-05-07T13:02:58;3.67;;;2.20;;
5845;SDS011;2949;50.778;7.094;2023-05-07T13:05:23;2.30;;;1.40;;
5845;SDS011;2949;50.778;7.094;2023-05-07T13:07:53;3.33;;;1.20;;
5845;SDS011;2949;50.778;7.094;2023-05-07T13:10:19;6.10;;;1.33;;
5845;SDS011;2949;50.778;7.094;2023-05-07T13:12:45;1.30;;;1.30;;
5845;SDS011;2949;50.778;7.094;2023-05-07T13:15:10;2.13;;;1.70;;
5845;SDS011;2949;50.778;7.094;2023-05-07T13:17:36;2.10;;;1.90;;
5845;SDS011;2949;50.778;7.094;2023-05-07T13:20:01;2.33;;;2.10;;
5845;SDS011;2949;50.778;7.094;2023-05-07T13:22:27;1.53;;;1.43;;
5845;SDS011;2949;50.778;7.094;2023-05-07T13:24:52;1.40;;;1.30;;
5845;SDS011;2949;50.778;7.094;2023-05-07T13:27:18;1.30;;;1.20;;
5845;SDS011;2949;50.778;7.094;2023-05-07T13:29:44;5.37;;;1.40;;
5845;SDS011;2949;50.778;7.094;2023-05-07T13:32:10;1.63;;;1.53;;
5845;SDS011;2949;50.778;7.094;2023-05-07T13:34:36;3.07;;;1.77;;
5845;SDS011;2949;50.778;7.094;2023-05-07T13:37:02;1.10;;;1.10;;
5845;SDS011;2949;50.778;7.094;2023-05-07T13:39:28;2.40;;;1.13;;
5845;SDS011;2949;50.778;7.094;2023-05-07T13:41:53;1.60;;;1.50;;
5845;SDS011;2949;50.778;7.094;2023-05-07T13:44:19;1.50;;;1.40;;
5845;SDS011;2949;50.778;7.094;2023-05-07T13:46:45;6.00;;;1.67;;
5845;SDS011;2949;50.778;7.094;2023-05-07T13:49:11;4.93;;;1.80;;
5845;SDS011;2949;50.778;7.094;2023-05-07T13:51:37;7.43;;;1.80;;
5845;SDS011;2949;50.778;7.094;2023-05-07T13:54:03;2.73;;;1.80;;
5845;SDS011;2949;50.778;7.094;2023-05-07T13:56:29;4.73;;;1.50;;
5845;SDS011;2949;50.778;7.094;2023-05-07T13:58:56;8.00;;;1.80;;
5845;SDS011;2949;50.778;7.094;2023-05-07T14:01:22;3.00;;;1.70;;
5845;SDS011;2949;50.778;7.094;2023-05-07T14:03:47;3.73;;;2.10;;
5845;SDS011;2949;50.778;7.094;2023-05-07T14:06:13;2.57;;;1.80;;
5845;SDS011;2949;50.778;7.094;2023-05-07T14:08:40;12.70;;;2.27;;
5845;SDS011;2949;50.778;7.094;2023-05-07T14:11:05;4.43;;;2.40;;
5845;SDS011;2949;50.778;7.094;2023-05-07T14:13:31;2.23;;;2.10;;
5845;SDS011;2949;50.778;7.094;2023-05-07T14:15:58;2.20;;;1.90;;
5845;SDS011;2949;50.778;7.094;2023-05-07T14:18:23;2.57;;;1.97;;
5845;SDS011;2949;50.778;7.094;2023-05-07T14:20:49;2.23;;;2.00;;
5845;SDS011;2949;50.778;7.094;2023-05-07T14:23:15;2.40;;;1.70;;
5845;SDS011;2949;50.778;7.094;2023-05-07T14:25:42;2.63;;;1.87;;
5845;SDS011;2949;50.778;7.094;2023-05-07T14:28:08;2.50;;;1.80;;
5845;SDS011;2949;50.778;7.094;2023-05-07T14:30:34;2.10;;;1.73;;
5845;SDS011;2949;50.778;7.094;2023-05-07T14:32:59;1.90;;;1.80;;
5845;SDS011;2949;50.778;7.094;2023-05-07T14:35:25;2.00;;;1.80;;
5845;SDS011;2949;50.778;7.094;2023-05-07T14:37:51;2.57;;;2.37;;
5845;SDS011;2949;50.778;7.094;2023-05-07T14:40:16;2.13;;;1.80;;
5845;SDS011;2949;50.778;7.094;2023-05-07T14:42:42;9.77;;;3.53;;
5845;SDS011;2949;50.778;7.094;2023-05-07T14:45:07;7.03;;;3.87;;
5845;SDS011;2949;50.778;7.094;2023-05-07T14:47:33;3.00;;;2.40;;
5845;SDS011;2949;50.778;7.094;2023-05-07T14:49:59;3.87;;;2.90;;
5845;SDS011;2949;50.778;7.094;2023-05-07T14:52:25;5.93;;;2.80;;
5845;SDS011;2949;50.778;7.094;2023-05-07T14:54:51;3.73;;;2.70;;
5845;SDS011;2949;50.778;7.094;2023-05-07T14:57:17;5.87;;;3.23;;
5845;SDS011;2949;50.778;7.094;2023-05-07T14:59:43;3.80;;;2.60;;
5845;SDS011;2949;50.778;7.094;2023-05-07T15:02:09;10.43;;;3.20;;
5845;SDS011;2949;50.778;7.094;2023-05-07T15:04:36;6.10;;;2.50;;
5845;SDS011;2949;50.778;7.094;2023-05-07T15:07:03;6.37;;;2.53;;
5845;SDS011;2949;50.778;7.094;2023-05-07T15:09:29;3.23;;;2.93;;
5845;SDS011;2949;50.778;7.094;2023-05-07T15:11:54;4.00;;;2.93;;
5845;SDS011;2949;50.778;7.094;2023-05-07T15:14:20;3.87;;;2.77;;
5845;SDS011;2949;50.778;7.094;2023-05-07T15:16:47;4.40;;;2.93;;
5845;SDS011;2949;50.778;7.094;2023-05-07T15:19:15;5.43;;;3.30;;
5845;SDS011;2949;50.778;7.094;2023-05-07T15:21:41;2.50;;;2.23;;
5845;SDS011;2949;50.778;7.094;2023-05-07T15:24:07;4.90;;;2.50;;